createdAt,value
2019-02-26T00:00:46.993Z,102155.00
2019-02-26T00:03:19.423Z,102160.58
2019-02-26T00:05:50.232Z,102165.24
2019-02-26T00:08:26.598Z,102162.27
2019-02-26T00:10:58.584Z,102158.02
2019-02-26T00:13:29.591Z,102155.09
2019-02-26T00:16:05.606Z,102145.70
2019-02-26T00:18:33.090Z,102144.05
2019-02-26T00:21:05.003Z,102136.50
2019-02-26T00:23:35.554Z,102126.81
2019-02-26T00:26:06.157Z,102120.86
2019-02-26T00:28:39.104Z,102114.72
2019-02-26T00:31:09.594Z,102118.45
2019-02-26T00:33:40.578Z,102107.95
2019-02-26T00:36:13.226Z,102112.93
2019-02-26T00:38:44.663Z,102126.45
2019-02-26T00:41:15.497Z,102132.73
2019-02-26T00:43:45.851Z,102138.56
2019-02-26T00:46:16.593Z,102141.22
2019-02-26T00:48:47.830Z,102143.70
2019-02-26T00:51:21.031Z,102150.04
2019-02-26T00:53:53.333Z,102147.99
2019-02-26T00:56:25.228Z,102148.40
2019-02-26T00:58:57.310Z,102153.49
2019-02-26T01:01:27.942Z,102157.88
2019-02-26T01:03:58.489Z,102159.31
2019-02-26T01:06:29.431Z,102156.05
2019-02-26T01:09:02.017Z,102147.20
2019-02-26T01:11:33.257Z,102144.75
2019-02-26T01:14:03.649Z,102140.49
2019-02-26T01:16:34.474Z,102134.59
2019-02-26T01:19:09.071Z,102137.30
2019-02-26T01:21:37.928Z,102137.98
2019-02-26T01:24:08.661Z,102130.00
2019-02-26T01:26:42.691Z,102132.65
2019-02-26T01:29:16.066Z,102125.03
2019-02-26T01:31:44.116Z,102117.58
2019-02-26T01:34:15.785Z,102115.97
2019-02-26T01:36:47.776Z,102112.20
2019-02-26T01:39:21.012Z,102111.55
2019-02-26T01:41:54.083Z,102107.00
2019-02-26T01:44:23.349Z,102101.77
2019-02-26T01:46:55.450Z,102103.07
2019-02-26T01:49:27.949Z,102093.33
2019-02-26T01:51:58.038Z,102089.48
2019-02-26T01:54:30.490Z,102086.09
2019-02-26T01:57:03.323Z,102080.13
2019-02-26T01:59:34.665Z,102077.50
2019-02-26T02:02:05.153Z,102083.16
2019-02-26T02:04:37.086Z,102092.48
2019-02-26T02:07:07.801Z,102094.32
2019-02-26T02:09:41.117Z,102096.12
2019-02-26T02:12:12.614Z,102092.24
2019-02-26T02:14:43.387Z,102094.05
2019-02-26T02:17:13.826Z,102086.16
2019-02-26T02:19:44.332Z,102085.80
2019-02-26T02:22:16.723Z,102076.48
2019-02-26T02:24:48.563Z,102073.20
2019-02-26T02:27:20.280Z,102072.22
2019-02-26T02:29:52.968Z,102065.46
2019-02-26T02:32:24.140Z,102064.36
2019-02-26T02:34:58.305Z,102067.66
2019-02-26T02:37:29.422Z,102069.98
2019-02-26T02:39:59.686Z,102066.22
2019-02-26T02:42:30.363Z,102060.64
2019-02-26T02:45:00.776Z,102063.27
2019-02-26T02:47:33.943Z,102061.58
2019-02-26T02:50:05.570Z,102060.98
2019-02-26T02:52:37.893Z,102058.31
2019-02-26T02:55:09.875Z,102065.30
2019-02-26T02:57:42.306Z,102064.02
2019-02-26T03:00:15.859Z,102068.56
2019-02-26T03:02:49.381Z,102065.78
2019-02-26T03:05:18.831Z,102068.77
2019-02-26T03:07:53.499Z,102072.89
2019-02-26T03:10:26.046Z,102080.31
2019-02-26T03:12:57.677Z,102084.83
2019-02-26T03:15:30.027Z,102084.51
2019-02-26T03:18:00.850Z,102079.72
2019-02-26T03:20:39.243Z,102081.20
2019-02-26T03:23:07.161Z,102081.63
2019-02-26T03:25:38.209Z,102079.23
2019-02-26T03:28:09.374Z,102073.81
2019-02-26T03:30:43.890Z,102074.25
2019-02-26T03:33:12.540Z,102076.12
2019-02-26T03:35:42.957Z,102076.02
2019-02-26T03:38:15.379Z,102067.89
2019-02-26T03:40:45.813Z,102081.00
2019-02-26T03:43:16.519Z,102087.56
2019-02-26T03:45:48.003Z,102088.70
2019-02-26T03:48:20.317Z,102082.66
2019-02-26T03:50:50.691Z,102077.45
2019-02-26T03:53:25.574Z,102079.02
2019-02-26T03:55:59.621Z,102075.67
2019-02-26T03:58:26.311Z,102072.65
2019-02-26T04:01:01.708Z,102066.01
2019-02-26T04:03:29.568Z,102065.88
2019-02-26T04:06:03.118Z,102071.25
2019-02-26T04:08:33.539Z,102088.16
2019-02-26T04:11:03.953Z,102092.13
2019-02-26T04:13:34.314Z,102090.08
2019-02-26T04:16:04.795Z,102091.08
2019-02-26T04:18:35.263Z,102093.74
2019-02-26T04:21:09.185Z,102088.20
2019-02-26T04:23:38.826Z,102088.94
2019-02-26T04:27:17.432Z,102078.73
2019-02-26T04:31:18.091Z,102085.91
2019-02-26T04:34:39.220Z,102082.61
2019-02-26T04:38:08.827Z,102075.39
2019-02-26T04:41:15.892Z,102070.96
2019-02-26T04:44:52.924Z,102065.28
2019-02-26T04:47:33.497Z,102069.20
2019-02-26T04:50:03.886Z,102068.50
2019-02-26T04:52:35.757Z,102061.91
2019-02-26T04:55:06.851Z,102067.25
2019-02-26T04:57:39.358Z,102061.64
2019-02-26T05:00:10.484Z,102054.20
2019-02-26T05:02:41.372Z,102057.45
2019-02-26T05:05:11.681Z,102062.86
2019-02-26T05:07:44.486Z,102066.24
2019-02-26T05:10:14.240Z,102071.74
2019-02-26T05:12:44.700Z,102069.91
2019-02-26T05:15:18.031Z,102064.14
2019-02-26T05:17:47.118Z,102059.11
2019-02-26T05:20:18.983Z,102053.69
2019-02-26T05:22:52.049Z,102055.08
2019-02-26T05:25:22.940Z,102042.77
2019-02-26T05:27:53.316Z,102053.30
2019-02-26T05:30:23.675Z,102058.53
2019-02-26T05:32:57.015Z,102056.38
2019-02-26T05:35:26.292Z,102060.37
2019-02-26T05:38:00.357Z,102057.44
2019-02-26T05:40:28.772Z,102060.34
2019-02-26T05:43:01.270Z,102056.55
2019-02-26T05:45:33.070Z,102063.96
2019-02-26T05:48:03.364Z,102068.16
2019-02-26T05:50:35.442Z,102074.23
2019-02-26T05:53:07.617Z,102071.57
2019-02-26T05:55:38.453Z,102077.01
2019-02-26T05:58:10.081Z,102075.62
2019-02-26T06:00:42.409Z,102073.88
2019-02-26T06:03:16.330Z,102066.95
2019-02-26T06:05:46.494Z,102063.77
2019-02-26T06:08:18.141Z,102060.56
2019-02-26T06:10:48.606Z,102063.06
2019-02-26T06:13:19.723Z,102065.47
2019-02-26T06:16:07.747Z,102063.77
2019-02-26T06:19:27.475Z,102056.00
2019-02-26T06:22:05.997Z,102058.13
2019-02-26T06:24:38.097Z,102074.02
2019-02-26T06:27:13.119Z,102075.40
2019-02-26T06:29:41.195Z,102077.21
2019-02-26T06:32:14.328Z,102087.20
2019-02-26T06:34:45.126Z,102081.88
2019-02-26T06:37:24.030Z,102080.35
2019-02-26T06:39:57.909Z,102072.89
2019-02-26T06:42:28.426Z,102069.98
2019-02-26T06:45:00.280Z,102069.59
2019-02-26T06:47:33.198Z,102063.95
2019-02-26T06:50:05.565Z,102069.75
2019-02-26T06:52:38.198Z,102073.16
2019-02-26T06:55:09.224Z,102076.34
2019-02-26T06:57:41.469Z,102065.79
2019-02-26T07:00:16.233Z,102055.28
2019-02-26T07:02:46.446Z,102060.17
2019-02-26T07:05:16.961Z,102054.95
2019-02-26T07:07:47.400Z,102054.56
2019-02-26T07:10:21.548Z,102045.38
2019-02-26T07:12:50.599Z,102044.94
2019-02-26T07:15:21.183Z,102056.99
2019-02-26T07:17:51.791Z,102058.54
2019-02-26T07:20:22.288Z,102058.94
2019-02-26T07:22:55.065Z,102057.80
2019-02-26T07:25:27.806Z,102060.82
2019-02-26T07:28:00.646Z,102064.66
2019-02-26T07:30:34.698Z,102062.89
2019-02-26T07:33:12.150Z,102069.96
2019-02-26T07:35:42.813Z,102080.91
2019-02-26T07:38:15.676Z,102088.81
2019-02-26T07:40:49.827Z,102072.49
2019-02-26T07:43:22.523Z,102070.73
2019-02-26T07:45:52.602Z,102069.39
2019-02-26T07:48:34.764Z,102055.66
2019-02-26T07:51:07.646Z,102057.63
2019-02-26T07:53:42.021Z,102067.16
2019-02-26T07:56:10.504Z,102079.02
2019-02-26T07:58:42.957Z,102080.02
2019-02-26T08:01:13.202Z,102069.06
2019-02-26T08:03:45.975Z,102053.14
2019-02-26T08:06:16.262Z,102050.22
2019-02-26T08:08:48.512Z,102053.72
2019-02-26T08:11:19.071Z,102046.70
2019-02-26T08:13:51.711Z,102048.00
2019-02-26T08:16:25.842Z,102044.93
2019-02-26T08:19:01.208Z,102048.11
2019-02-26T08:21:33.323Z,102050.02
2019-02-26T08:24:03.797Z,102054.52
2019-02-26T08:26:34.176Z,102051.41
2019-02-26T08:29:05.671Z,102047.22
2019-02-26T08:31:37.668Z,102057.86
2019-02-26T08:34:12.665Z,102053.52
2019-02-26T08:36:46.208Z,102053.98
2019-02-26T08:39:15.887Z,102050.69
2019-02-26T08:42:08.679Z,102047.41
2019-02-26T08:44:51.310Z,102041.70
2019-02-26T08:47:24.818Z,102036.90
2019-02-26T08:49:55.499Z,102030.72
2019-02-26T08:52:29.304Z,102027.47
2019-02-26T08:55:32.779Z,102028.57
2019-02-26T08:58:21.179Z,102027.75
2019-02-26T09:01:06.091Z,102030.67
2019-02-26T09:03:42.455Z,102027.12
2019-02-26T09:06:21.312Z,102022.55
2019-02-26T09:09:04.573Z,102021.16
2019-02-26T09:11:36.981Z,102028.78
2019-02-26T09:14:11.522Z,102034.00
2019-02-26T09:16:47.664Z,102044.41
2019-02-26T09:19:19.010Z,102052.91
2019-02-26T09:21:54.745Z,102054.77
2019-02-26T09:24:26.117Z,102059.86
2019-02-26T09:26:57.430Z,102058.92
2019-02-26T09:29:29.012Z,102066.77
2019-02-26T09:31:59.875Z,102061.61
2019-02-26T09:34:31.674Z,102065.22
2019-02-26T09:37:03.516Z,102063.45
2019-02-26T09:39:38.639Z,102064.41
2019-02-26T09:42:09.173Z,102072.87
2019-02-26T09:44:39.991Z,102073.94
2019-02-26T09:47:10.295Z,102065.72
2019-02-26T09:49:41.108Z,102073.70
2019-02-26T09:52:13.694Z,102070.56
2019-02-26T09:54:46.340Z,102069.06
2019-02-26T09:57:18.102Z,102058.52
2019-02-26T09:59:49.613Z,102063.06
2019-02-26T10:02:21.942Z,102059.05
2019-02-26T10:05:03.967Z,102058.23
2019-02-26T10:07:38.750Z,102061.27
2019-02-26T10:10:14.148Z,102067.06
2019-02-26T10:12:47.235Z,102062.41
2019-02-26T10:15:17.785Z,102055.98
2019-02-26T10:17:49.809Z,102063.36
2019-02-26T10:20:23.273Z,102065.73
2019-02-26T10:22:57.170Z,102068.77
2019-02-26T10:25:31.037Z,102074.52
2019-02-26T10:28:05.805Z,102077.60
2019-02-26T10:30:33.947Z,102076.16
2019-02-26T10:33:17.648Z,102083.14
2019-02-26T10:36:39.964Z,102085.92
2019-02-26T10:39:08.548Z,102082.38
2019-02-26T10:41:41.385Z,102082.30
2019-02-26T10:44:11.797Z,102080.84
2019-02-26T10:46:44.423Z,102076.85
2019-02-26T10:49:14.582Z,102073.03
2019-02-26T10:51:45.291Z,102072.42
2019-02-26T10:54:18.084Z,102075.80
2019-02-26T10:56:50.048Z,102076.57
2019-02-26T10:59:20.744Z,102077.87
2019-02-26T11:01:55.272Z,102066.96
2019-02-26T11:04:34.424Z,102067.13
2019-02-26T11:06:59.110Z,102059.48
2019-02-26T11:09:31.873Z,102061.69
2019-02-26T11:12:05.144Z,102057.00
2019-02-26T11:14:36.404Z,102059.55
2019-02-26T11:17:07.327Z,102047.24
2019-02-26T11:19:39.599Z,102054.23
2019-02-26T11:22:10.482Z,102044.95
2019-02-26T11:24:42.684Z,102038.98
2019-02-26T11:27:13.704Z,102041.59
2019-02-26T11:29:44.052Z,102036.14
2019-02-26T11:32:15.545Z,102029.83
2019-02-26T11:34:46.808Z,102027.93
2019-02-26T11:37:20.144Z,102027.98
2019-02-26T11:39:51.908Z,102020.53
2019-02-26T11:42:24.171Z,102014.42
2019-02-26T11:44:54.568Z,102013.86
2019-02-26T11:47:26.121Z,102009.81
2019-02-26T11:49:59.676Z,102006.92
2019-02-26T11:55:31.381Z,102007.25
2019-02-26T11:58:00.433Z,102000.69
2019-02-26T12:00:42.774Z,102003.77
2019-02-26T12:03:15.545Z,102002.20
2019-02-26T12:05:46.796Z,101993.95
2019-02-26T12:08:22.848Z,101993.63
2019-02-26T12:11:01.160Z,101987.32
2019-02-26T12:13:30.834Z,101987.02
2019-02-26T12:16:04.912Z,101980.77
2019-02-26T12:18:36.836Z,101981.08
2019-02-26T12:21:08.005Z,101976.37
2019-02-26T12:23:41.663Z,101974.01
2019-02-26T12:26:12.157Z,101968.45
2019-02-26T12:28:46.080Z,101967.84
2019-02-26T12:31:18.184Z,101973.30
2019-02-26T12:33:48.588Z,101970.88
2019-02-26T12:36:21.219Z,101974.05
2019-02-26T12:38:59.186Z,101969.69
2019-02-26T12:41:29.585Z,101969.43
2019-02-26T12:44:02.266Z,101967.94
2019-02-26T12:46:35.742Z,101968.73
2019-02-26T12:49:12.671Z,101973.01
2019-02-26T12:51:44.042Z,101971.11
2019-02-26T12:54:15.697Z,101966.25
2019-02-26T12:56:52.319Z,101958.14
2019-02-26T12:59:26.768Z,101958.11
2019-02-26T13:01:57.464Z,101957.28
2019-02-26T13:04:32.299Z,101952.88
2019-02-26T13:07:05.441Z,101949.44
2019-02-26T13:09:39.136Z,101950.17
2019-02-26T13:12:08.500Z,101945.83
2019-02-26T13:14:43.632Z,101938.63
2019-02-26T13:17:17.329Z,101937.84
2019-02-26T13:19:49.111Z,101946.67
2019-02-26T13:22:20.307Z,101945.69
2019-02-26T13:24:50.984Z,101943.64
2019-02-26T13:27:21.683Z,101948.09
2019-02-26T13:29:56.954Z,101952.16
2019-02-26T13:32:32.128Z,101945.37
2019-02-26T13:35:01.037Z,101941.36
2019-02-26T13:37:35.292Z,101946.74
2019-02-26T13:40:05.510Z,101943.80
2019-02-26T13:42:35.981Z,101941.79
2019-02-26T13:45:08.567Z,101939.92
2019-02-26T13:47:38.941Z,101929.04
2019-02-26T13:50:12.785Z,101926.62
2019-02-26T13:52:46.472Z,101920.77
2019-02-26T13:55:16.945Z,101917.19
2019-02-26T13:57:51.274Z,101915.14
2019-02-26T14:00:26.510Z,101909.23
2019-02-26T14:02:54.116Z,101904.98
2019-02-26T14:05:24.727Z,101904.47
2019-02-26T14:07:55.538Z,101893.95
2019-02-26T14:10:25.955Z,101896.45
2019-02-26T14:12:59.457Z,101884.99
2019-02-26T14:15:30.097Z,101878.06
2019-02-26T14:18:00.536Z,101880.78
2019-02-26T14:20:31.246Z,101870.22
2019-02-26T14:23:02.821Z,101866.20
2019-02-26T14:25:36.811Z,101863.01
2019-02-26T14:28:10.216Z,101858.41
2019-02-26T14:30:44.676Z,101856.30
2019-02-26T14:33:17.893Z,101848.41
2019-02-26T14:35:51.455Z,101839.47
2019-02-26T14:38:24.423Z,101844.83
2019-02-26T14:41:02.238Z,101846.38
2019-02-26T14:43:33.007Z,101845.31
2019-02-26T14:46:03.413Z,101835.59
2019-02-26T14:48:34.231Z,101832.94
2019-02-26T14:51:04.832Z,101826.70
2019-02-26T14:53:35.930Z,101829.40
2019-02-26T14:56:06.776Z,101829.60
2019-02-26T14:58:37.353Z,101834.34
2019-02-26T15:01:07.722Z,101833.63
2019-02-26T15:03:38.713Z,101831.47
2019-02-26T15:06:12.684Z,101830.99
2019-02-26T15:08:44.734Z,101829.31
2019-02-26T15:11:15.520Z,101832.53
2019-02-26T15:13:46.195Z,101838.62
2019-02-26T15:16:19.268Z,101839.34
2019-02-26T15:18:51.340Z,101841.61
2019-02-26T15:21:21.751Z,101846.11
2019-02-26T15:23:54.460Z,101847.06
2019-02-26T15:26:25.174Z,101849.30
2019-02-26T15:29:02.075Z,101843.13
2019-02-26T15:31:33.097Z,101841.73
2019-02-26T15:34:05.769Z,101842.31
2019-02-26T15:36:50.016Z,101834.86
2019-02-26T15:39:35.505Z,101831.02
2019-02-26T15:42:05.954Z,101848.30
2019-02-26T15:44:39.458Z,101845.56
2019-02-26T15:47:12.401Z,101842.53
2019-02-26T15:49:45.184Z,101851.13
2019-02-26T15:52:15.906Z,101850.97
2019-02-26T15:54:46.371Z,101860.67
2019-02-26T15:57:16.790Z,101855.00
2019-02-26T15:59:47.444Z,101852.59
2019-02-26T16:02:17.889Z,101849.40
2019-02-26T16:04:48.441Z,101846.85
2019-02-26T16:07:23.761Z,101851.06
2019-02-26T16:09:54.650Z,101850.03
2019-02-26T16:12:30.899Z,101853.66
2019-02-26T16:15:03.196Z,101857.22
2019-02-26T16:17:36.876Z,101863.16
2019-02-26T16:20:14.549Z,101867.42
2019-02-26T16:22:46.718Z,101863.72
2019-02-26T16:25:20.686Z,101858.07
2019-02-26T16:27:54.482Z,101856.98
2019-02-26T16:30:25.093Z,101857.98
2019-02-26T16:32:58.293Z,101864.53
2019-02-26T16:35:28.822Z,101868.58
2019-02-26T16:37:59.308Z,101859.48
2019-02-26T16:40:32.249Z,101862.88
2019-02-26T16:43:02.154Z,101869.36
2019-02-26T16:45:35.322Z,101865.70
2019-02-26T16:48:07.295Z,101875.84
2019-02-26T16:50:37.819Z,101879.64
2019-02-26T16:53:12.110Z,101881.07
2019-02-26T16:55:42.671Z,101881.69
2019-02-26T16:58:13.262Z,101882.55
2019-02-26T17:00:48.895Z,101887.45
2019-02-26T17:03:19.067Z,101884.88
2019-02-26T17:05:49.924Z,101883.94
2019-02-26T17:08:22.576Z,101886.19
2019-02-26T17:10:53.699Z,101885.97
2019-02-26T17:13:24.139Z,101889.11
2019-02-26T17:15:59.264Z,101891.30
2019-02-26T17:18:27.881Z,101888.36
2019-02-26T17:20:58.288Z,101894.63
2019-02-26T17:23:28.866Z,101886.62
2019-02-26T17:26:00.589Z,101887.06
2019-02-26T17:28:32.705Z,101892.86
2019-02-26T17:31:07.040Z,101888.24
2019-02-26T17:33:37.493Z,101891.34
2019-02-26T17:36:08.792Z,101888.31
2019-02-26T17:38:39.760Z,101893.84
2019-02-26T17:41:14.509Z,101888.34
2019-02-26T17:43:46.780Z,101888.19
2019-02-26T17:46:17.411Z,101887.77
2019-02-26T17:48:48.580Z,101885.83
2019-02-26T17:51:22.756Z,101877.19
2019-02-26T17:54:03.955Z,101875.15
2019-02-26T17:56:36.199Z,101870.41
2019-02-26T17:59:08.407Z,101863.42
2019-02-26T18:01:41.102Z,101867.18
2019-02-26T18:04:14.156Z,101861.22
2019-02-26T18:06:46.044Z,101863.67
2019-02-26T18:09:16.574Z,101866.16
2019-02-26T18:11:47.018Z,101877.09
2019-02-26T18:14:17.607Z,101880.09
2019-02-26T18:16:48.199Z,101881.17
2019-02-26T18:19:21.422Z,101882.10
2019-02-26T18:21:51.870Z,101873.92
2019-02-26T18:24:22.246Z,101874.16
2019-02-26T18:26:53.401Z,101887.36
2019-02-26T18:29:25.664Z,101891.67
2019-02-26T18:31:56.063Z,101895.33
2019-02-26T18:34:26.445Z,101894.41
2019-02-26T18:37:01.319Z,101887.85
2019-02-26T18:39:33.896Z,101886.02
2019-02-26T18:42:17.331Z,101879.30
2019-02-26T18:44:56.732Z,101879.07
2019-02-26T18:47:29.478Z,101886.73
2019-02-26T18:50:00.444Z,101887.00
2019-02-26T18:52:30.957Z,101885.30
2019-02-26T18:55:01.459Z,101881.41
2019-02-26T18:57:34.137Z,101883.09
2019-02-26T19:00:08.602Z,101875.63
2019-02-26T19:02:39.137Z,101877.63
2019-02-26T19:05:10.040Z,101878.41
2019-02-26T19:07:41.493Z,101873.83
2019-02-26T19:10:19.437Z,101873.83
2019-02-26T19:12:48.198Z,101880.08
2019-02-26T19:15:19.827Z,101884.36
2019-02-26T19:17:56.884Z,101890.61
2019-02-26T19:20:31.881Z,101889.00
2019-02-26T19:23:02.389Z,101882.92
2019-02-26T19:25:34.871Z,101883.31
2019-02-26T19:28:05.349Z,101892.48
2019-02-26T19:30:39.245Z,101898.33
2019-02-26T19:33:11.573Z,101898.66
2019-02-26T19:35:42.286Z,101892.56
2019-02-26T19:38:13.178Z,101887.72
2019-02-26T19:40:46.847Z,101886.72
2019-02-26T19:43:17.281Z,101888.75
2019-02-26T19:45:48.125Z,101888.41
2019-02-26T19:48:18.829Z,101881.23
2019-02-26T19:50:49.336Z,101878.92
2019-02-26T19:53:19.705Z,101877.34
2019-02-26T19:55:50.338Z,101878.48
2019-02-26T19:58:25.275Z,101884.66
2019-02-26T20:00:56.111Z,101886.37
2019-02-26T20:03:39.271Z,101887.14
2019-02-26T20:05:59.074Z,101896.06
2019-02-26T20:08:30.158Z,101892.58
2019-02-26T20:11:03.486Z,101899.71
2019-02-26T20:13:34.605Z,101905.87
2019-02-26T20:16:05.309Z,101911.87
2019-02-26T20:18:35.856Z,101905.90
2019-02-26T20:21:06.612Z,101901.35
2019-02-26T20:23:41.830Z,101899.00
2019-02-26T20:26:16.070Z,101903.80
2019-02-26T20:28:50.453Z,101910.19
2019-02-26T20:31:23.526Z,101907.80
2019-02-26T20:33:54.071Z,101902.89
2019-02-26T20:36:27.903Z,101901.53
2019-02-26T20:38:58.374Z,101897.80
2019-02-26T20:41:28.733Z,101896.69
2019-02-26T20:44:01.822Z,101897.59
2019-02-26T20:46:32.368Z,101901.90
2019-02-26T20:49:02.944Z,101897.91
2019-02-26T20:51:41.043Z,101894.63
2019-02-26T20:54:13.931Z,101896.16
2019-02-26T20:56:49.225Z,101895.66
2019-02-26T20:59:21.479Z,101896.19
2019-02-26T21:01:51.926Z,101892.88
2019-02-26T21:04:22.447Z,101892.34
2019-02-26T21:06:52.946Z,101888.02
2019-02-26T21:09:23.387Z,101889.77
2019-02-26T21:11:55.830Z,101887.20
2019-02-26T21:14:30.193Z,101892.13
2019-02-26T21:17:00.697Z,101893.72
2019-02-26T21:19:35.595Z,101896.61
2019-02-26T21:22:08.554Z,101893.09
2019-02-26T21:24:39.405Z,101890.08
2019-02-26T21:27:13.009Z,101886.23
2019-02-26T21:29:43.525Z,101894.32
2019-02-26T21:32:14.112Z,101898.49
2019-02-26T21:34:47.384Z,101882.19
2019-02-26T21:37:20.298Z,101881.25
2019-02-26T21:39:56.638Z,101886.23
2019-02-26T21:42:29.605Z,101893.44
2019-02-26T21:45:02.167Z,101890.28
2019-02-26T21:47:32.952Z,101886.17
2019-02-26T21:50:06.874Z,101880.04
2019-02-26T21:52:39.759Z,101869.62
2019-02-26T21:55:09.902Z,101875.61
2019-02-26T21:57:43.818Z,101881.91
2019-02-26T22:00:16.869Z,101871.85
2019-02-26T22:02:51.859Z,101875.80
2019-02-26T22:05:19.484Z,101873.41
2019-02-26T22:07:52.386Z,101876.94
2019-02-26T22:10:22.542Z,101878.14
2019-02-26T22:12:56.640Z,101880.17
2019-02-26T22:15:25.495Z,101873.73
2019-02-26T22:17:58.207Z,101873.75
2019-02-26T22:20:36.263Z,101875.30
2019-02-26T22:23:01.140Z,101868.86
2019-02-26T22:25:31.805Z,101863.56
2019-02-26T22:28:02.206Z,101865.98
2019-02-26T22:30:32.592Z,101864.61
2019-02-26T22:33:03.216Z,101866.90
2019-02-26T22:35:33.813Z,101869.47
2019-02-26T22:38:04.522Z,101873.73
2019-02-26T22:40:37.100Z,101875.98
2019-02-26T22:43:07.399Z,101876.80
2019-02-26T22:45:37.881Z,101870.25
2019-02-26T22:48:13.467Z,101870.44
2019-02-26T22:50:41.432Z,101870.77
2019-02-26T22:53:12.245Z,101872.81
2019-02-26T22:55:42.690Z,101867.80
2019-02-26T22:58:15.828Z,101864.37
2019-02-26T23:01:18.585Z,101859.80
2019-02-26T23:03:49.035Z,101856.13
2019-02-26T23:06:19.654Z,101862.92
2019-02-26T23:08:53.325Z,101856.89
2019-02-26T23:11:24.003Z,101854.67
2019-02-26T23:13:54.746Z,101842.59
2019-02-26T23:16:25.768Z,101835.24
2019-02-26T23:18:57.327Z,101838.75
2019-02-26T23:21:28.537Z,101837.07
2019-02-26T23:23:59.412Z,101835.16
2019-02-26T23:26:29.930Z,101836.14
2019-02-26T23:29:00.600Z,101834.42
2019-02-26T23:31:32.888Z,101834.63
2019-02-26T23:34:03.785Z,101831.95
2019-02-26T23:36:34.199Z,101828.55
2019-02-26T23:39:07.183Z,101828.12
2019-02-26T23:41:41.726Z,101829.16
2019-02-26T23:44:12.288Z,101830.25
2019-02-26T23:46:49.015Z,101836.66
2019-02-26T23:49:19.454Z,101836.48
2019-02-26T23:51:50.951Z,101836.09
2019-02-26T23:54:22.582Z,101837.52
2019-02-26T23:56:56.153Z,101836.44
2019-02-26T23:59:26.515Z,101838.56
